Aérodrome :
LOGIN :

S'inscrire | Disclaimer

   EN    FR    IT 

 










Légende :    VFR   VFR Marginal   IFR   IFR Intensif   IFR Très Intensif
Visi : 
Plafond : 
>= 8 km
>= 3000ft
5 à 8 km
1000 à 3000 ft
1500m à 5 km
500 à 1000 ft
800 à 1500m
200 à 500 ft
< 800m
< 200 ft
Symboles :   Orages  Brouillard  Fortes neiges  Fortes précipitations  Vent > 20 kt
SIGMETs :   Divers  Orages  Givrage  Turbulence  Onde Orograph.  Cendres Volcan.






- Altitude de l'aérodrome : 2595 ft
- Code IATA : SLM


LESA - Salamanca Matacan

DERNIER METAR :
  • 270500Z AUTO 26008KT 9999 OVC012 05/04 Q1023

METARs EXPIRÉS :
  • 270430Z AUTO 26009KT 230V290 9999 OVC014 05/03 Q1023
  • 270400Z AUTO 27006KT 9999 OVC013 05/03 Q1023
  • 270330Z AUTO 24004KT 210V280 9999 OVC018 04/03 Q1023
  • 270300Z AUTO 22005KT 9999 FEW021 02/01 Q1023
  • 270230Z AUTO 24004KT 190V260 CAVOK 01/M00 Q1023

TAF TAF LESA
Valide du 27 à 00h jusqu'au 28 à 00h UTC


262300Z 2700/2724 28007KT CAVOK TX16/2715Z TN00/2706Z
PROB40
TEMPO 2705/2709 3000 BR BKN008
PROB30
TEMPO 2705/2708 1200 BCFG BKN002



MET'MAP, la Météo Aéronautique d'un coup d'oeil ! - Copyright ORBIFLY Décembre 2007 - Disclaimer

ORBIFLY MET'MAP TEAM :

Programmation & Développement : Alexandra Zaïnal
Sur une idée originale de : Baudouin d'Aumeries
Assistance à la programmation : Marc-Olivier Méhu
Soutien technique & logistique : Manuel Goepfert

Contact : metmap@orbifly.com




SOURCES & CREDITS :

   NOAA